brissiewebsurf Speed Test Results

        Days  
brissiewebsurf brissiewebsurf
Share Query AVG Img MAX Img AVG bbc MAX bbc iFrame
  
 
Showing results 1 to 25 of 112 for Username brissiewebsurf arrow up Only Upload    arrow down Only Download   
Time arrow down ct    arrow up arrow down   Size    Speed ConnectID Provider TID
Wed Jun 21 2017 @ 10:48:27 pm Sydney, AU AU arrow 480 kB 669 kbps 84 kB/s14502133516436Myrepublic historybxs2NL4Vdshare history
Wed Jun 21 2017 @ 10:48:03 pm Sydney, AU AU arrow 6.1 MB 7.09 Mbps 886 kB/s14502133516436Myrepublic historyJQYHD2ep4share history
Wed Jun 21 2017 @ 10:13:44 pm Sydney, AU AU arrow 175 MB 6.37 Mbps 796 kB/s14502133517536Myrepublic history3RdfvEqNWshare history
Wed Jun 21 2017 @ 10:07:43 pm Sydney, AU AU arrow 50 MB 683 kbps 85 kB/s14502133517536Myrepublic historypgouSk9XEshare history
Wed Jun 21 2017 @ 9:55:38 pm Sydney, AU AU arrow 480 kB 668 kbps 84 kB/s14502133517536Myrepublic historyM0GXu4y2Bshare history
Wed Jun 21 2017 @ 9:55:14 pm Sydney, AU AU arrow 6.4 MB 6.41 Mbps 801 kB/s14502133517536Myrepublic historyauWfibTZ0share history
Wed Jun 21 2017 @ 9:41:06 pm Sydney, AU AU arrow 480 kB 676 kbps 85 kB/s14502133517536Myrepublic history0FBRK3h9Lshare history
Wed Jun 21 2017 @ 9:40:25 pm Sydney, AU AU arrow 150 MB 6.37 Mbps 796 kB/s14502133517536Myrepublic historydl5IyOnoDshare history
Wed Jun 21 2017 @ 9:36:36 pm Sydney, AU AU arrow 6.3 MB 6.42 Mbps 802 kB/s14502133517536Myrepublic historyq0DhL6vaMshare history
Wed Jun 21 2017 @ 9:35:46 pm Sydney, AU AU arrow 480 kB 678 kbps 85 kB/s14502133517536Myrepublic historyGLW4voahTshare history
Wed Jun 21 2017 @ 9:33:50 pm Sydney, AU AU arrow 6.2 MB 6.41 Mbps 801 kB/s14502133517536Myrepublic historyI0BjtCfRlshare history
Wed Jun 21 2017 @ 9:30:48 pm Sydney, AU AU arrow 6.3 MB 6.36 Mbps 795 kB/s14502133517536Myrepublic historyfmH4lw32Ashare history
Fri May 19 2017 @ 7:20:26 am Sydney, AU AU arrow 480 kB 669 kbps 84 kB/s1450213356363Myrepublic historyi1x5Hobwyshare history
Fri May 19 2017 @ 7:19:39 am Sydney, AU AU arrow 75 MB 6.74 Mbps 843 kB/s1450213356363Myrepublic historytJz7TmHF8share history
Wed May 17 2017 @ 5:09:46 am Sydney, AU AU arrow 480 kB 656 kbps 82 kB/s1450213356363Myrepublic historyLGK8OnCwJshare history
Wed May 17 2017 @ 5:09:23 am Sydney, AU AU arrow 6.2 MB 6.8 Mbps 850 kB/s1450213356363Myrepublic historyNeQbfM20Bshare history
Tue May 16 2017 @ 5:05:04 am Sydney, AU AU arrow 480 kB 663 kbps 83 kB/s1450213356363Myrepublic history7xchZ6UVdshare history
Tue May 16 2017 @ 5:03:31 am Sydney, AU AU arrow 125 MB 6.77 Mbps 847 kB/s1450213356363Myrepublic historyyUGc2fFszshare history
Tue May 16 2017 @ 4:58:32 am Sydney, AU AU arrow 480 kB 666 kbps 83 kB/s1450213356363Myrepublic historyC6oge5Ei9share history
Tue May 16 2017 @ 4:58:07 am Sydney, AU AU arrow 6.1 MB 6.83 Mbps 854 kB/s1450213356363Myrepublic historysguGRiSOzshare history
Fri May 12 2017 @ 1:33:20 am Sydney, AU AU arrow 480 kB 669 kbps 84 kB/s1450213356913Myrepublic history7qeUNcbsWshare history
Fri May 12 2017 @ 1:32:51 am Sydney, AU AU arrow 6.3 MB 6.81 Mbps 851 kB/s1450213356913Myrepublic historyEnHBrlQvbshare history
Tue May 02 2017 @ 3:00:18 am Sydney, AU US arrow 125 MB 6.48 Mbps 810 kB/s1450213357555Cadence Design historyBbEC35u1Dshare history
Tue May 02 2017 @ 2:52:55 am Sydney, AU US arrow 480 kB 674 kbps 84 kB/s1450213357555Cadence Design historykYoqZdlujshare history
Tue May 02 2017 @ 2:52:25 am Sydney, AU US arrow 6.3 MB 6.51 Mbps 814 kB/s1450213357555Cadence Design historyKIDC5E4LNshare history
  
Displaying Internet Speed Test results for Username brissiewebsurf
Speed Test Version 15.9
© 2017 TestMy Net LLC - TestMy.net - Terms & Privacy - Mobile